sensor_id;sensor_type;location;lat;lon;timestamp;pressure;altitude;pressure_sealevel;temperature;humidity
64841;BME280;51307;52.162;7.560;2023-02-18T00:00:15;101584.63;;;9.40;67.19
64841;BME280;51307;52.162;7.560;2023-02-18T00:02:42;101586.28;;;9.10;67.82
64841;BME280;51307;52.162;7.560;2023-02-18T00:05:08;101577.53;;;9.08;68.05
64841;BME280;51307;52.162;7.560;2023-02-18T00:07:35;101573.84;;;8.99;67.97
64841;BME280;51307;52.162;7.560;2023-02-18T00:10:01;101565.84;;;9.20;67.43
64841;BME280;51307;52.162;7.560;2023-02-18T00:12:30;101560.69;;;9.29;67.15
64841;BME280;51307;52.162;7.560;2023-02-18T00:14:56;101560.09;;;9.25;66.91
64841;BME280;51307;52.162;7.560;2023-02-18T00:17:22;101558.94;;;9.49;66.06
64841;BME280;51307;52.162;7.560;2023-02-18T00:19:47;101562.78;;;9.35;66.43
64841;BME280;51307;52.162;7.560;2023-02-18T00:22:13;101570.72;;;8.94;67.61
64841;BME280;51307;52.162;7.560;2023-02-18T00:24:38;101557.25;;;8.96;67.37
64841;BME280;51307;52.162;7.560;2023-02-18T00:27:04;101562.84;;;9.14;66.93
64841;BME280;51307;52.162;7.560;2023-02-18T00:29:29;101544.59;;;9.19;66.97
64841;BME280;51307;52.162;7.560;2023-02-18T00:31:55;101547.22;;;9.09;67.13
64841;BME280;51307;52.162;7.560;2023-02-18T00:34:20;101556.13;;;8.98;67.58
64841;BME280;51307;52.162;7.560;2023-02-18T00:36:46;101557.06;;;9.08;67.27
64841;BME280;51307;52.162;7.560;2023-02-18T00:39:11;101563.00;;;8.91;67.56
64841;BME280;51307;52.162;7.560;2023-02-18T00:41:38;101561.75;;;8.95;67.76
64841;BME280;51307;52.162;7.560;2023-02-18T00:44:04;101558.47;;;9.13;67.04
64841;BME280;51307;52.162;7.560;2023-02-18T00:46:30;101553.13;;;9.13;67.19
64841;BME280;51307;52.162;7.560;2023-02-18T00:48:55;101551.53;;;9.00;67.70
64841;BME280;51307;52.162;7.560;2023-02-18T00:51:22;101543.56;;;9.10;67.08
64841;BME280;51307;52.162;7.560;2023-02-18T00:53:48;101544.09;;;9.35;66.15
64841;BME280;51307;52.162;7.560;2023-02-18T00:56:14;101550.25;;;9.25;66.99
64841;BME280;51307;52.162;7.560;2023-02-18T00:58:39;101528.56;;;9.19;67.08
64841;BME280;51307;52.162;7.560;2023-02-18T01:01:07;101537.19;;;9.32;66.65
64841;BME280;51307;52.162;7.560;2023-02-18T01:03:33;101536.38;;;9.32;66.73
64841;BME280;51307;52.162;7.560;2023-02-18T01:05:59;101531.78;;;9.43;66.66
64841;BME280;51307;52.162;7.560;2023-02-18T01:08:24;101527.88;;;9.17;67.19
64841;BME280;51307;52.162;7.560;2023-02-18T01:10:54;101529.31;;;9.31;67.05
64841;BME280;51307;52.162;7.560;2023-02-18T01:13:20;101526.41;;;9.34;66.78
64841;BME280;51307;52.162;7.560;2023-02-18T01:15:46;101528.38;;;9.41;66.54
64841;BME280;51307;52.162;7.560;2023-02-18T01:18:12;101520.19;;;9.33;66.71
64841;BME280;51307;52.162;7.560;2023-02-18T01:20:40;101517.34;;;9.56;66.24
64841;BME280;51307;52.162;7.560;2023-02-18T01:23:06;101511.16;;;9.55;66.17
64841;BME280;51307;52.162;7.560;2023-02-18T01:25:31;101516.28;;;9.37;66.66
64841;BME280;51307;52.162;7.560;2023-02-18T01:27:57;101504.41;;;9.61;65.85
64841;BME280;51307;52.162;7.560;2023-02-18T01:30:23;101502.75;;;9.29;67.12
64841;BME280;51307;52.162;7.560;2023-02-18T01:32:48;101500.91;;;9.20;67.31
64841;BME280;51307;52.162;7.560;2023-02-18T01:35:17;101494.63;;;9.71;65.99
64841;BME280;51307;52.162;7.560;2023-02-18T01:37:43;101496.53;;;9.59;66.42
64841;BME280;51307;52.162;7.560;2023-02-18T01:40:14;101497.53;;;9.78;66.07
64841;BME280;51307;52.162;7.560;2023-02-18T01:42:41;101493.13;;;9.48;66.76
64841;BME280;51307;52.162;7.560;2023-02-18T01:50:28;101483.03;;;9.61;66.28
64841;BME280;51307;52.162;7.560;2023-02-18T01:52:54;101479.34;;;9.52;66.82
64841;BME280;51307;52.162;7.560;2023-02-18T01:55:20;101475.69;;;9.43;66.98
64841;BME280;51307;52.162;7.560;2023-02-18T01:57:46;101474.47;;;9.67;66.48
64841;BME280;51307;52.162;7.560;2023-02-18T02:00:15;101478.94;;;9.47;67.04
64841;BME280;51307;52.162;7.560;2023-02-18T02:02:45;101472.03;;;9.45;67.40
64841;BME280;51307;52.162;7.560;2023-02-18T02:05:12;101472.38;;;9.71;66.70
64841;BME280;51307;52.162;7.560;2023-02-18T02:07:40;101464.34;;;9.61;67.00
64841;BME280;51307;52.162;7.560;2023-02-18T02:10:09;101455.47;;;9.60;67.26
64841;BME280;51307;52.162;7.560;2023-02-18T02:13:01;101444.06;;;9.49;67.79
64841;BME280;51307;52.162;7.560;2023-02-18T02:18:53;101432.56;;;9.58;67.57
64841;BME280;51307;52.162;7.560;2023-02-18T02:21:32;101438.47;;;9.62;67.77
64841;BME280;51307;52.162;7.560;2023-02-18T02:24:26;101428.06;;;9.58;67.83
64841;BME280;51307;52.162;7.560;2023-02-18T02:27:07;101428.50;;;9.64;67.44
64841;BME280;51307;52.162;7.560;2023-02-18T02:35:37;101416.25;;;9.71;67.62
64841;BME280;51307;52.162;7.560;2023-02-18T02:38:18;101423.59;;;9.79;67.82
64841;BME280;51307;52.162;7.560;2023-02-18T02:41:09;101410.34;;;9.67;68.28
64841;BME280;51307;52.162;7.560;2023-02-18T02:46:25;101411.34;;;9.66;68.82
64841;BME280;51307;52.162;7.560;2023-02-18T02:49:12;101402.03;;;9.51;69.23
64841;BME280;51307;52.162;7.560;2023-02-18T02:54:20;101382.22;;;9.53;69.51
64841;BME280;51307;52.162;7.560;2023-02-18T02:56:47;101376.56;;;9.56;69.47
64841;BME280;51307;52.162;7.560;2023-02-18T02:59:19;101388.94;;;9.67;69.28
64841;BME280;51307;52.162;7.560;2023-02-18T03:04:53;101371.25;;;9.66;69.20
64841;BME280;51307;52.162;7.560;2023-02-18T03:13:28;101343.53;;;9.87;68.56
64841;BME280;51307;52.162;7.560;2023-02-18T03:16:13;101351.16;;;9.62;69.04
64841;BME280;51307;52.162;7.560;2023-02-18T03:21:30;101351.84;;;9.64;69.05
64841;BME280;51307;52.162;7.560;2023-02-18T03:24:09;101341.44;;;9.71;69.10
64841;BME280;51307;52.162;7.560;2023-02-18T03:26:44;101339.75;;;9.70;68.84
64841;BME280;51307;52.162;7.560;2023-02-18T03:29:14;101329.91;;;9.70;69.21
64841;BME280;51307;52.162;7.560;2023-02-18T03:31:46;101333.72;;;9.58;69.56
64841;BME280;51307;52.162;7.560;2023-02-18T03:34:30;101323.44;;;9.63;69.68
64841;BME280;51307;52.162;7.560;2023-02-18T03:36:59;101327.25;;;9.70;69.10
64841;BME280;51307;52.162;7.560;2023-02-18T03:39:28;101318.78;;;9.65;69.55
64841;BME280;51307;52.162;7.560;2023-02-18T03:41:54;101312.03;;;9.71;69.29
64841;BME280;51307;52.162;7.560;2023-02-18T03:44:20;101307.13;;;9.76;69.48
64841;BME280;51307;52.162;7.560;2023-02-18T03:46:46;101302.47;;;9.88;69.17
64841;BME280;51307;52.162;7.560;2023-02-18T03:49:13;101297.28;;;9.67;69.75
64841;BME280;51307;52.162;7.560;2023-02-18T03:51:39;101299.94;;;9.67;70.22
64841;BME280;51307;52.162;7.560;2023-02-18T03:54:05;101304.19;;;9.59;70.46
64841;BME280;51307;52.162;7.560;2023-02-18T03:56:32;101297.44;;;9.65;70.55
64841;BME280;51307;52.162;7.560;2023-02-18T03:58:58;101290.94;;;9.77;70.39
64841;BME280;51307;52.162;7.560;2023-02-18T04:01:23;101282.66;;;9.71;70.36
64841;BME280;51307;52.162;7.560;2023-02-18T04:03:49;101290.09;;;9.87;69.86
64841;BME280;51307;52.162;7.560;2023-02-18T04:06:14;101291.09;;;9.76;70.31
64841;BME280;51307;52.162;7.560;2023-02-18T04:08:40;101281.94;;;9.79;70.87
64841;BME280;51307;52.162;7.560;2023-02-18T04:11:05;101281.13;;;9.58;71.55
64841;BME280;51307;52.162;7.560;2023-02-18T04:13:31;101273.50;;;9.73;71.16
64841;BME280;51307;52.162;7.560;2023-02-18T04:15:56;101273.34;;;9.75;71.36
64841;BME280;51307;52.162;7.560;2023-02-18T04:18:22;101269.94;;;9.92;70.55
64841;BME280;51307;52.162;7.560;2023-02-18T04:20:48;101261.06;;;10.02;70.46
64841;BME280;51307;52.162;7.560;2023-02-18T04:23:13;101258.19;;;9.66;71.48
64841;BME280;51307;52.162;7.560;2023-02-18T04:25:39;101256.31;;;9.86;71.11
64841;BME280;51307;52.162;7.560;2023-02-18T04:28:05;101248.06;;;9.69;71.82
64841;BME280;51307;52.162;7.560;2023-02-18T04:30:30;101251.84;;;9.86;71.30
64841;BME280;51307;52.162;7.560;2023-02-18T04:32:56;101250.16;;;9.75;71.67
64841;BME280;51307;52.162;7.560;2023-02-18T04:35:22;101252.97;;;9.74;71.75
64841;BME280;51307;52.162;7.560;2023-02-18T04:37:47;101239.16;;;9.88;71.57
64841;BME280;51307;52.162;7.560;2023-02-18T04:40:13;101247.16;;;9.88;71.42
64841;BME280;51307;52.162;7.560;2023-02-18T04:42:39;101238.31;;;9.88;71.63
64841;BME280;51307;52.162;7.560;2023-02-18T04:45:04;101223.22;;;9.97;71.02
64841;BME280;51307;52.162;7.560;2023-02-18T04:47:30;101231.72;;;9.72;72.27
64841;BME280;51307;52.162;7.560;2023-02-18T04:49:55;101223.72;;;9.82;71.99
64841;BME280;51307;52.162;7.560;2023-02-18T04:52:21;101228.97;;;10.02;71.39
64841;BME280;51307;52.162;7.560;2023-02-18T04:54:47;101216.06;;;9.97;71.78
64841;BME280;51307;52.162;7.560;2023-02-18T04:57:12;101209.97;;;10.05;71.23
64841;BME280;51307;52.162;7.560;2023-02-18T04:59:38;101203.41;;;9.89;71.61
64841;BME280;51307;52.162;7.560;2023-02-18T05:02:03;101203.69;;;9.96;71.79
64841;BME280;51307;52.162;7.560;2023-02-18T05:04:29;101209.59;;;9.90;71.95
64841;BME280;51307;52.162;7.560;2023-02-18T05:06:54;101201.06;;;9.86;72.26
64841;BME280;51307;52.162;7.560;2023-02-18T05:09:20;101197.94;;;9.91;71.81
64841;BME280;51307;52.162;7.560;2023-02-18T05:11:46;101191.44;;;9.93;71.68
64841;BME280;51307;52.162;7.560;2023-02-18T05:14:15;101190.00;;;9.99;71.86
64841;BME280;51307;52.162;7.560;2023-02-18T05:16:40;101180.38;;;9.79;72.63
64841;BME280;51307;52.162;7.560;2023-02-18T05:19:06;101175.97;;;9.87;72.27
64841;BME280;51307;52.162;7.560;2023-02-18T05:21:31;101171.91;;;9.93;72.12
64841;BME280;51307;52.162;7.560;2023-02-18T05:23:57;101166.66;;;10.01;72.05
64841;BME280;51307;52.162;7.560;2023-02-18T05:26:23;101157.78;;;9.73;72.80
64841;BME280;51307;52.162;7.560;2023-02-18T05:28:49;101154.13;;;10.02;71.92
64841;BME280;51307;52.162;7.560;2023-02-18T05:31:15;101152.94;;;9.86;72.43
64841;BME280;51307;52.162;7.560;2023-02-18T05:33:40;101146.78;;;9.76;72.72
64841;BME280;51307;52.162;7.560;2023-02-18T05:36:06;101138.13;;;9.92;72.17
64841;BME280;51307;52.162;7.560;2023-02-18T05:38:31;101135.63;;;9.90;72.37
64841;BME280;51307;52.162;7.560;2023-02-18T05:40:57;101136.91;;;9.86;72.61
64841;BME280;51307;52.162;7.560;2023-02-18T05:43:22;101127.75;;;9.89;72.34
64841;BME280;51307;52.162;7.560;2023-02-18T05:45:48;101130.03;;;9.84;72.62
64841;BME280;51307;52.162;7.560;2023-02-18T05:48:13;101113.28;;;9.82;72.61
64841;BME280;51307;52.162;7.560;2023-02-18T05:50:39;101104.19;;;9.74;72.94
64841;BME280;51307;52.162;7.560;2023-02-18T05:53:04;101110.59;;;9.82;72.54
64841;BME280;51307;52.162;7.560;2023-02-18T05:55:30;101092.78;;;10.00;72.22
64841;BME280;51307;52.162;7.560;2023-02-18T05:57:56;101095.91;;;9.68;73.03
64841;BME280;51307;52.162;7.560;2023-02-18T06:00:21;101101.50;;;9.74;72.89
64841;BME280;51307;52.162;7.560;2023-02-18T06:02:47;101107.16;;;9.99;72.39
64841;BME280;51307;52.162;7.560;2023-02-18T06:05:12;101094.09;;;9.96;72.49
64841;BME280;51307;52.162;7.560;2023-02-18T06:07:38;101089.56;;;9.97;72.11
64841;BME280;51307;52.162;7.560;2023-02-18T06:10:04;101074.78;;;9.74;73.02
64841;BME280;51307;52.162;7.560;2023-02-18T06:12:30;101072.31;;;9.91;72.55
64841;BME280;51307;52.162;7.560;2023-02-18T06:14:56;101073.78;;;10.03;72.04
64841;BME280;51307;52.162;7.560;2023-02-18T06:17:21;101073.94;;;9.74;72.79
64841;BME280;51307;52.162;7.560;2023-02-18T06:19:48;101076.84;;;9.81;72.39
64841;BME280;51307;52.162;7.560;2023-02-18T06:22:13;101067.03;;;9.99;72.39
64841;BME280;51307;52.162;7.560;2023-02-18T06:24:39;101059.88;;;10.00;72.26
64841;BME280;51307;52.162;7.560;2023-02-18T06:27:05;101070.88;;;9.69;73.28
64841;BME280;51307;52.162;7.560;2023-02-18T06:29:30;101068.88;;;9.99;72.26
64841;BME280;51307;52.162;7.560;2023-02-18T06:31:57;101071.56;;;9.71;72.79
64841;BME280;51307;52.162;7.560;2023-02-18T06:34:24;101065.97;;;9.64;73.07
64841;BME280;51307;52.162;7.560;2023-02-18T06:36:50;101084.34;;;9.67;73.09
64841;BME280;51307;52.162;7.560;2023-02-18T06:39:15;101069.75;;;9.71;72.98
64841;BME280;51307;52.162;7.560;2023-02-18T06:41:41;101063.78;;;9.77;72.45
64841;BME280;51307;52.162;7.560;2023-02-18T06:44:06;101061.53;;;9.83;72.51
64841;BME280;51307;52.162;7.560;2023-02-18T06:46:32;101083.06;;;9.81;72.73
64841;BME280;51307;52.162;7.560;2023-02-18T06:48:57;101074.88;;;9.83;72.67
64841;BME280;51307;52.162;7.560;2023-02-18T06:51:23;101065.66;;;9.95;72.34
64841;BME280;51307;52.162;7.560;2023-02-18T06:53:48;101059.97;;;10.08;71.65
64841;BME280;51307;52.162;7.560;2023-02-18T06:56:15;101060.03;;;9.70;72.96
64841;BME280;51307;52.162;7.560;2023-02-18T06:58:40;101057.97;;;9.92;72.37
64841;BME280;51307;52.162;7.560;2023-02-18T07:01:06;101071.72;;;9.97;72.24
64841;BME280;51307;52.162;7.560;2023-02-18T07:03:31;101063.03;;;9.57;73.00
64841;BME280;51307;52.162;7.560;2023-02-18T07:05:57;101049.13;;;9.82;72.98
64841;BME280;51307;52.162;7.560;2023-02-18T07:08:22;101057.78;;;9.75;72.71
64841;BME280;51307;52.162;7.560;2023-02-18T07:10:48;101047.25;;;9.64;72.78
64841;BME280;51307;52.162;7.560;2023-02-18T07:13:14;101050.44;;;9.77;72.56
64841;BME280;51307;52.162;7.560;2023-02-18T07:15:39;101049.84;;;9.84;72.72
64841;BME280;51307;52.162;7.560;2023-02-18T07:18:05;101059.06;;;9.71;73.03
64841;BME280;51307;52.162;7.560;2023-02-18T07:20:30;101042.91;;;9.63;73.31
64841;BME280;51307;52.162;7.560;2023-02-18T07:22:56;101058.91;;;9.73;73.14
64841;BME280;51307;52.162;7.560;2023-02-18T07:25:22;101049.34;;;9.70;72.99
64841;BME280;51307;52.162;7.560;2023-02-18T07:27:48;101062.00;;;9.68;73.09
64841;BME280;51307;52.162;7.560;2023-02-18T07:30:13;101051.78;;;9.64;73.38
64841;BME280;51307;52.162;7.560;2023-02-18T07:32:39;101045.56;;;9.91;72.77
64841;BME280;51307;52.162;7.560;2023-02-18T07:35:05;101044.59;;;9.64;73.23
64841;BME280;51307;52.162;7.560;2023-02-18T07:37:31;101050.00;;;9.82;73.13
64841;BME280;51307;52.162;7.560;2023-02-18T07:39:57;101034.41;;;9.96;72.31
64841;BME280;51307;52.162;7.560;2023-02-18T07:42:23;101051.22;;;9.88;72.67
64841;BME280;51307;52.162;7.560;2023-02-18T07:44:48;101057.47;;;9.79;73.07
64841;BME280;51307;52.162;7.560;2023-02-18T07:47:15;101048.78;;;9.67;73.06
64841;BME280;51307;52.162;7.560;2023-02-18T07:49:43;101049.94;;;9.64;73.67
64841;BME280;51307;52.162;7.560;2023-02-18T07:52:08;101054.09;;;9.49;73.68
64841;BME280;51307;52.162;7.560;2023-02-18T07:54:34;101044.41;;;9.75;73.17
64841;BME280;51307;52.162;7.560;2023-02-18T07:56:59;101060.03;;;9.70;73.04
64841;BME280;51307;52.162;7.560;2023-02-18T07:59:25;101060.22;;;9.87;72.53
64841;BME280;51307;52.162;7.560;2023-02-18T08:01:50;101059.69;;;9.55;73.64
64841;BME280;51307;52.162;7.560;2023-02-18T08:04:16;101056.97;;;9.65;73.29
64841;BME280;51307;52.162;7.560;2023-02-18T08:06:45;101064.47;;;9.52;74.08
64841;BME280;51307;52.162;7.560;2023-02-18T08:09:12;101058.97;;;9.53;73.81
64841;BME280;51307;52.162;7.560;2023-02-18T08:11:38;101048.06;;;9.74;73.02
64841;BME280;51307;52.162;7.560;2023-02-18T08:14:04;101061.44;;;9.74;72.89
64841;BME280;51307;52.162;7.560;2023-02-18T08:16:29;101055.19;;;9.84;72.60
64841;BME280;51307;52.162;7.560;2023-02-18T08:18:55;101070.56;;;9.72;73.28
64841;BME280;51307;52.162;7.560;2023-02-18T08:21:23;101066.56;;;9.86;73.00
64841;BME280;51307;52.162;7.560;2023-02-18T08:23:49;101063.13;;;9.75;73.16
64841;BME280;51307;52.162;7.560;2023-02-18T08:26:16;101059.34;;;9.68;73.57
64841;BME280;51307;52.162;7.560;2023-02-18T08:28:42;101057.47;;;9.79;73.29
64841;BME280;51307;52.162;7.560;2023-02-18T08:31:19;101066.41;;;9.87;73.02
64841;BME280;51307;52.162;7.560;2023-02-18T08:33:45;101061.19;;;9.68;73.42
64841;BME280;51307;52.162;7.560;2023-02-18T08:36:10;101050.19;;;9.71;73.37
64841;BME280;51307;52.162;7.560;2023-02-18T08:38:36;101058.34;;;9.69;72.99
64841;BME280;51307;52.162;7.560;2023-02-18T08:41:03;101048.00;;;9.84;72.98
64841;BME280;51307;52.162;7.560;2023-02-18T08:43:29;101042.59;;;9.94;72.71
64841;BME280;51307;52.162;7.560;2023-02-18T08:45:56;101036.63;;;9.82;72.75
64841;BME280;51307;52.162;7.560;2023-02-18T08:48:22;101036.50;;;9.74;72.64
64841;BME280;51307;52.162;7.560;2023-02-18T08:50:48;101054.97;;;9.67;72.05
64841;BME280;51307;52.162;7.560;2023-02-18T08:53:14;101041.63;;;9.67;71.64
64841;BME280;51307;52.162;7.560;2023-02-18T08:55:40;101044.03;;;9.88;71.52
64841;BME280;51307;52.162;7.560;2023-02-18T08:58:05;101047.31;;;9.82;71.38
64841;BME280;51307;52.162;7.560;2023-02-18T09:00:31;101054.84;;;9.69;71.89
64841;BME280;51307;52.162;7.560;2023-02-18T09:02:57;101051.81;;;9.82;71.42
64841;BME280;51307;52.162;7.560;2023-02-18T09:05:23;101046.38;;;9.73;71.94
64841;BME280;51307;52.162;7.560;2023-02-18T09:07:48;101044.09;;;9.79;71.73
64841;BME280;51307;52.162;7.560;2023-02-18T09:10:15;101046.75;;;10.06;71.12
64841;BME280;51307;52.162;7.560;2023-02-18T09:12:40;101055.28;;;9.92;71.38
64841;BME280;51307;52.162;7.560;2023-02-18T09:15:06;101062.50;;;9.82;71.61
64841;BME280;51307;52.162;7.560;2023-02-18T09:17:32;101056.09;;;9.92;70.92
64841;BME280;51307;52.162;7.560;2023-02-18T09:19:57;101045.63;;;9.53;71.79
64841;BME280;51307;52.162;7.560;2023-02-18T09:22:23;101048.75;;;9.76;71.25
64841;BME280;51307;52.162;7.560;2023-02-18T09:24:49;101042.63;;;9.66;71.57
64841;BME280;51307;52.162;7.560;2023-02-18T09:27:14;101041.97;;;9.54;71.78
64841;BME280;51307;52.162;7.560;2023-02-18T09:29:40;101046.38;;;9.73;71.55
64841;BME280;51307;52.162;7.560;2023-02-18T09:32:07;101038.19;;;9.75;71.27
64841;BME280;51307;52.162;7.560;2023-02-18T09:34:34;101049.69;;;9.57;71.63
64841;BME280;51307;52.162;7.560;2023-02-18T09:37:03;101041.88;;;9.36;71.70
64841;BME280;51307;52.162;7.560;2023-02-18T09:39:29;101036.16;;;9.59;71.06
64841;BME280;51307;52.162;7.560;2023-02-18T09:42:01;101041.50;;;9.59;70.62
64841;BME280;51307;52.162;7.560;2023-02-18T09:44:35;101064.00;;;9.66;69.97
64841;BME280;51307;52.162;7.560;2023-02-18T09:47:09;101089.88;;;9.18;70.41
64841;BME280;51307;52.162;7.560;2023-02-18T09:49:40;101054.00;;;9.31;70.48
64841;BME280;51307;52.162;7.560;2023-02-18T09:52:20;101043.31;;;9.40;70.24
64841;BME280;51307;52.162;7.560;2023-02-18T09:54:51;101051.31;;;9.68;69.60
64841;BME280;51307;52.162;7.560;2023-02-18T09:59:57;101062.72;;;9.60;69.36
64841;BME280;51307;52.162;7.560;2023-02-18T10:02:26;101038.06;;;9.76;68.76
64841;BME280;51307;52.162;7.560;2023-02-18T10:04:54;101073.03;;;9.55;69.20
64841;BME280;51307;52.162;7.560;2023-02-18T10:07:31;101053.09;;;9.50;69.60
64841;BME280;51307;52.162;7.560;2023-02-18T10:10:04;101071.16;;;9.28;69.77
64841;BME280;51307;52.162;7.560;2023-02-18T10:12:36;101063.09;;;9.48;69.70
64841;BME280;51307;52.162;7.560;2023-02-18T10:15:02;101058.91;;;9.35;70.74
64841;BME280;51307;52.162;7.560;2023-02-18T10:17:32;101064.66;;;9.40;69.74
64841;BME280;51307;52.162;7.560;2023-02-18T10:19:59;101052.44;;;9.66;69.49
64841;BME280;51307;52.162;7.560;2023-02-18T10:22:26;101071.19;;;9.56;69.96
64841;BME280;51307;52.162;7.560;2023-02-18T10:27:30;101068.94;;;9.23;70.78
64841;BME280;51307;52.162;7.560;2023-02-18T10:30:08;101062.50;;;9.06;71.42
64841;BME280;51307;52.162;7.560;2023-02-18T10:32:45;101067.56;;;9.09;71.21
64841;BME280;51307;52.162;7.560;2023-02-18T10:35:30;101069.75;;;9.24;71.29
64841;BME280;51307;52.162;7.560;2023-02-18T10:40:54;101071.50;;;8.96;71.69
64841;BME280;51307;52.162;7.560;2023-02-18T10:46:19;101087.78;;;9.22;70.83
64841;BME280;51307;52.162;7.560;2023-02-18T10:51:25;101084.91;;;9.33;71.14
64841;BME280;51307;52.162;7.560;2023-02-18T10:53:54;101102.94;;;9.12;71.63
64841;BME280;51307;52.162;7.560;2023-02-18T10:56:46;101084.03;;;8.95;72.62
64841;BME280;51307;52.162;7.560;2023-02-18T10:59:14;101075.41;;;9.21;71.54
64841;BME280;51307;52.162;7.560;2023-02-18T11:01:44;101080.63;;;9.13;71.77
64841;BME280;51307;52.162;7.560;2023-02-18T11:04:20;101104.81;;;8.91;72.32
64841;BME280;51307;52.162;7.560;2023-02-18T11:06:51;101086.53;;;8.97;72.41
64841;BME280;51307;52.162;7.560;2023-02-18T11:17:44;101097.63;;;9.02;72.02
64841;BME280;51307;52.162;7.560;2023-02-18T11:20:33;101092.16;;;9.03;71.98
64841;BME280;51307;52.162;7.560;2023-02-18T11:25:33;101101.00;;;8.94;72.28
64841;BME280;51307;52.162;7.560;2023-02-18T11:28:05;101083.09;;;9.24;71.54
64841;BME280;51307;52.162;7.560;2023-02-18T11:30:55;101104.38;;;8.76;72.62
64841;BME280;51307;52.162;7.560;2023-02-18T11:42:04;101098.75;;;8.99;72.73
64841;BME280;51307;52.162;7.560;2023-02-18T11:44:28;101088.66;;;8.93;72.70
64841;BME280;51307;52.162;7.560;2023-02-18T11:49:32;101089.22;;;8.97;72.38
64841;BME280;51307;52.162;7.560;2023-02-18T11:52:26;101100.72;;;9.07;72.15
64841;BME280;51307;52.162;7.560;2023-02-18T11:55:01;101085.03;;;9.41;71.14
64841;BME280;51307;52.162;7.560;2023-02-18T11:57:27;101082.09;;;9.35;71.29
64841;BME280;51307;52.162;7.560;2023-02-18T11:59:54;101098.91;;;8.88;71.81
64841;BME280;51307;52.162;7.560;2023-02-18T12:02:33;101097.06;;;9.18;71.11
64841;BME280;51307;52.162;7.560;2023-02-18T12:05:21;101092.53;;;9.18;71.78
64841;BME280;51307;52.162;7.560;2023-02-18T12:08:13;101095.03;;;9.30;70.52
64841;BME280;51307;52.162;7.560;2023-02-18T12:10:49;101094.91;;;9.31;70.46
64841;BME280;51307;52.162;7.560;2023-02-18T12:13:38;101102.28;;;9.09;70.71
64841;BME280;51307;52.162;7.560;2023-02-18T12:24:32;101094.19;;;9.29;70.55
64841;BME280;51307;52.162;7.560;2023-02-18T12:46:26;101102.38;;;9.08;71.72
64841;BME280;51307;52.162;7.560;2023-02-18T12:49:18;101092.22;;;9.41;71.11
64841;BME280;51307;52.162;7.560;2023-02-18T12:52:19;101105.22;;;9.54;70.78
64841;BME280;51307;52.162;7.560;2023-02-18T12:57:38;101097.28;;;9.34;70.58
64841;BME280;51307;52.162;7.560;2023-02-18T13:06:17;101093.75;;;9.43;70.30
64841;BME280;51307;52.162;7.560;2023-02-18T13:11:44;101104.03;;;9.38;69.96
64841;BME280;51307;52.162;7.560;2023-02-18T13:14:53;101097.63;;;9.59;69.67
64841;BME280;51307;52.162;7.560;2023-02-18T13:17:23;101101.44;;;9.84;69.11
64841;BME280;51307;52.162;7.560;2023-02-18T13:19:56;101113.84;;;9.48;69.69
64841;BME280;51307;52.162;7.560;2023-02-18T13:22:26;101105.94;;;9.56;69.46
64841;BME280;51307;52.162;7.560;2023-02-18T13:24:55;101103.06;;;9.67;69.57
64841;BME280;51307;52.162;7.560;2023-02-18T13:33:00;101116.25;;;9.79;69.97
64841;BME280;51307;52.162;7.560;2023-02-18T13:35:46;101098.28;;;9.71;70.36
64841;BME280;51307;52.162;7.560;2023-02-18T13:41:12;101091.53;;;9.67;69.91
64841;BME280;51307;52.162;7.560;2023-02-18T13:43:37;101096.00;;;9.76;69.54
64841;BME280;51307;52.162;7.560;2023-02-18T13:46:19;101104.91;;;9.67;69.62
64841;BME280;51307;52.162;7.560;2023-02-18T13:51:45;101099.41;;;9.68;69.52
64841;BME280;51307;52.162;7.560;2023-02-18T13:56:45;101109.13;;;9.69;69.33
64841;BME280;51307;52.162;7.560;2023-02-18T13:59:19;101115.19;;;9.62;69.33
64841;BME280;51307;52.162;7.560;2023-02-18T14:01:49;101107.28;;;9.70;68.85
64841;BME280;51307;52.162;7.560;2023-02-18T14:04:55;101093.47;;;10.02;68.19
64841;BME280;51307;52.162;7.560;2023-02-18T14:09:51;101098.94;;;9.83;68.52
64841;BME280;51307;52.162;7.560;2023-02-18T14:12:39;101093.03;;;10.07;67.92
64841;BME280;51307;52.162;7.560;2023-02-18T14:17:48;101092.44;;;9.85;68.92
64841;BME280;51307;52.162;7.560;2023-02-18T14:22:54;101106.50;;;9.87;68.58
64841;BME280;51307;52.162;7.560;2023-02-18T14:27:49;101102.69;;;9.90;68.29
64841;BME280;51307;52.162;7.560;2023-02-18T14:30:18;101118.78;;;9.80;68.78
64841;BME280;51307;52.162;7.560;2023-02-18T14:32:51;101114.47;;;9.97;68.25
64841;BME280;51307;52.162;7.560;2023-02-18T14:40:48;101104.47;;;9.99;67.94
64841;BME280;51307;52.162;7.560;2023-02-18T14:43:52;101117.44;;;10.22;67.39
64841;BME280;51307;52.162;7.560;2023-02-18T14:51:29;101122.41;;;9.89;67.87
64841;BME280;51307;52.162;7.560;2023-02-18T14:54:05;101118.97;;;9.97;67.69
64841;BME280;51307;52.162;7.560;2023-02-18T14:56:37;101117.06;;;9.89;68.08
64841;BME280;51307;52.162;7.560;2023-02-18T14:59:05;101111.09;;;9.95;68.02
64841;BME280;51307;52.162;7.560;2023-02-18T15:01:34;101114.19;;;10.00;67.71
64841;BME280;51307;52.162;7.560;2023-02-18T15:04:00;101105.66;;;10.15;67.89
64841;BME280;51307;52.162;7.560;2023-02-18T15:06:34;101126.50;;;10.11;67.23
64841;BME280;51307;52.162;7.560;2023-02-18T15:09:17;101127.94;;;9.77;67.40
64841;BME280;51307;52.162;7.560;2023-02-18T15:11:56;101140.81;;;9.92;67.58
64841;BME280;51307;52.162;7.560;2023-02-18T15:14:35;101133.09;;;9.89;67.96
64841;BME280;51307;52.162;7.560;2023-02-18T15:17:05;101132.56;;;10.13;67.02
64841;BME280;51307;52.162;7.560;2023-02-18T15:19:41;101138.50;;;10.07;67.13
64841;BME280;51307;52.162;7.560;2023-02-18T15:22:30;101149.28;;;10.15;67.24
64841;BME280;51307;52.162;7.560;2023-02-18T15:24:58;101163.88;;;9.93;67.38
64841;BME280;51307;52.162;7.560;2023-02-18T15:27:30;101141.81;;;10.19;66.57
64841;BME280;51307;52.162;7.560;2023-02-18T15:30:23;101147.00;;;10.48;66.33
64841;BME280;51307;52.162;7.560;2023-02-18T15:32:55;101142.88;;;9.98;67.51